createdAt,value
2019-03-23T00:01:53.703Z,11.11
2019-03-23T00:04:21.961Z,10.57
2019-03-23T00:06:50.243Z,10.09
2019-03-23T00:09:19.080Z,10.28
2019-03-23T00:11:47.362Z,10.34
2019-03-23T00:14:15.624Z,10.30
2019-03-23T00:16:43.908Z,10.30
2019-03-23T00:19:12.167Z,10.00
2019-03-23T00:21:40.447Z,9.73
2019-03-23T00:24:08.711Z,9.72
2019-03-23T00:26:36.986Z,9.81
2019-03-23T00:29:05.243Z,9.75
2019-03-23T00:31:33.522Z,9.86
2019-03-23T00:34:01.778Z,9.84
2019-03-23T00:36:30.062Z,9.85
2019-03-23T00:38:58.679Z,9.83
2019-03-23T00:41:26.954Z,9.58
2019-03-23T00:43:55.211Z,9.48
2019-03-23T00:46:23.490Z,9.57
2019-03-23T00:48:51.747Z,9.55
2019-03-23T00:51:21.088Z,9.80
2019-03-23T00:53:50.019Z,9.76
2019-03-23T00:56:18.310Z,9.31
2019-03-23T00:58:46.607Z,9.13
2019-03-23T01:01:15.059Z,8.96
2019-03-23T01:03:43.338Z,8.97
2019-03-23T01:06:12.385Z,8.88
2019-03-23T01:08:41.314Z,8.96
2019-03-23T01:11:09.595Z,8.82
2019-03-23T01:13:37.855Z,8.70
2019-03-23T01:16:06.110Z,8.78
2019-03-23T01:18:35.063Z,8.89
2019-03-23T01:21:03.593Z,8.84
2019-03-23T01:23:32.633Z,9.03
2019-03-23T01:26:00.919Z,9.12
2019-03-23T01:28:29.168Z,8.95
2019-03-23T01:30:57.990Z,8.93
2019-03-23T01:33:26.265Z,8.71
2019-03-23T01:35:54.517Z,8.87
2019-03-23T01:38:23.365Z,8.82
2019-03-23T01:40:51.619Z,8.60
2019-03-23T01:43:20.666Z,8.66
2019-03-23T01:45:49.487Z,8.62
2019-03-23T01:48:17.772Z,8.55
2019-03-23T01:50:46.019Z,8.58
2019-03-23T01:53:14.578Z,8.74
2019-03-23T01:55:42.829Z,8.66
2019-03-23T01:58:11.106Z,8.55
2019-03-23T02:00:39.357Z,8.58
2019-03-23T02:03:07.632Z,8.55
2019-03-23T02:05:35.886Z,8.49
2019-03-23T02:08:04.162Z,8.54
2019-03-23T02:10:32.417Z,8.48
2019-03-23T02:13:00.691Z,8.38
2019-03-23T02:15:29.281Z,8.42
2019-03-23T02:17:58.324Z,8.37
2019-03-23T02:20:26.581Z,8.27
2019-03-23T02:22:54.839Z,8.25
2019-03-23T02:25:23.087Z,8.20
2019-03-23T02:27:51.361Z,8.04
2019-03-23T02:30:20.691Z,7.95
2019-03-23T02:32:49.017Z,8.13
2019-03-23T02:35:17.291Z,8.26
2019-03-23T02:37:45.569Z,8.27
2019-03-23T02:40:13.813Z,8.33
2019-03-23T02:42:42.852Z,7.93
2019-03-23T02:45:12.144Z,8.13
2019-03-23T02:47:40.512Z,8.24
2019-03-23T02:50:10.059Z,8.13
2019-03-23T02:52:38.400Z,8.07
2019-03-23T02:55:08.249Z,7.81
2019-03-23T02:57:36.535Z,7.85
2019-03-23T03:00:07.972Z,7.98
2019-03-23T03:02:36.245Z,8.13
2019-03-23T03:05:06.837Z,8.06
2019-03-23T03:07:42.102Z,8.11
2019-03-23T03:10:10.091Z,8.06
2019-03-23T03:12:38.938Z,8.07
2019-03-23T03:15:08.433Z,7.89
2019-03-23T03:17:36.706Z,7.84
2019-03-23T03:20:09.481Z,7.86
2019-03-23T03:22:37.750Z,7.76
2019-03-23T03:25:07.246Z,7.78
2019-03-23T03:27:35.555Z,7.76
2019-03-23T03:30:05.145Z,7.80
2019-03-23T03:32:33.425Z,7.76
2019-03-23T03:35:01.785Z,7.71
2019-03-23T03:37:30.029Z,7.49
2019-03-23T03:39:58.285Z,7.47
2019-03-23T03:42:26.566Z,8.10
2019-03-23T03:44:54.819Z,8.17
2019-03-23T03:47:23.104Z,8.02
2019-03-23T03:49:51.350Z,7.87
2019-03-23T03:52:19.627Z,7.83
2019-03-23T03:54:47.872Z,7.63
2019-03-23T03:57:16.144Z,7.91
2019-03-23T03:59:44.386Z,8.04
2019-03-23T04:02:12.662Z,8.22
2019-03-23T04:04:40.924Z,8.17
2019-03-23T04:07:09.783Z,8.17
2019-03-23T04:09:40.447Z,8.54
2019-03-23T04:12:08.871Z,8.57
2019-03-23T04:14:37.121Z,8.28
2019-03-23T04:17:05.386Z,8.10
2019-03-23T04:19:33.651Z,8.06
2019-03-23T04:22:01.904Z,8.17
2019-03-23T04:24:30.193Z,7.83
2019-03-23T04:26:58.716Z,7.74
2019-03-23T04:29:27.755Z,7.53
2019-03-23T04:31:55.996Z,7.17
2019-03-23T04:34:24.276Z,6.98
2019-03-23T04:36:52.524Z,6.81
2019-03-23T04:39:20.838Z,6.73
2019-03-23T04:41:49.090Z,6.40
2019-03-23T04:44:17.365Z,6.57
2019-03-23T04:46:45.617Z,6.57
2019-03-23T04:49:13.892Z,6.69
2019-03-23T04:51:42.150Z,6.71
2019-03-23T04:54:10.433Z,6.52
2019-03-23T04:56:38.687Z,6.53
2019-03-23T04:59:06.971Z,6.47
2019-03-23T05:01:35.998Z,6.52
2019-03-23T05:04:04.274Z,6.64
2019-03-23T05:06:32.529Z,6.30
2019-03-23T05:09:00.811Z,6.08
2019-03-23T05:11:29.069Z,6.27
2019-03-23T05:13:57.344Z,6.28
2019-03-23T05:16:25.608Z,6.57
2019-03-23T05:18:53.894Z,6.78
2019-03-23T05:21:22.924Z,6.87
2019-03-23T05:23:51.202Z,6.97
2019-03-23T05:26:19.463Z,6.88
2019-03-23T05:28:47.742Z,6.99
2019-03-23T05:31:16.057Z,6.90
2019-03-23T05:33:44.344Z,6.93
2019-03-23T05:36:12.605Z,6.91
2019-03-23T05:38:44.561Z,6.74
2019-03-23T05:41:11.438Z,6.98
2019-03-23T05:43:39.726Z,7.18
2019-03-23T05:46:07.986Z,7.17
2019-03-23T05:48:36.832Z,7.32
2019-03-23T05:51:05.661Z,7.36
2019-03-23T05:53:33.937Z,7.37
2019-03-23T05:56:02.193Z,7.50
2019-03-23T05:58:30.470Z,7.47
2019-03-23T06:01:00.065Z,7.54
2019-03-23T06:03:28.346Z,7.46
2019-03-23T06:05:56.601Z,7.42
2019-03-23T06:08:24.896Z,7.30
2019-03-23T06:10:53.143Z,7.21
2019-03-23T06:13:21.429Z,7.14
2019-03-23T06:15:50.247Z,7.26
2019-03-23T06:18:18.526Z,7.24
2019-03-23T06:20:46.793Z,7.32
2019-03-23T06:23:15.080Z,7.57
2019-03-23T06:25:43.907Z,7.36
2019-03-23T06:28:12.188Z,7.57
2019-03-23T06:30:41.012Z,7.48
2019-03-23T06:33:10.066Z,7.40
2019-03-23T06:35:38.323Z,7.42
2019-03-23T06:38:06.611Z,7.28
2019-03-23T06:40:34.870Z,7.42
2019-03-23T06:43:03.922Z,7.41
2019-03-23T06:45:32.180Z,7.30
2019-03-23T06:48:00.462Z,7.23
2019-03-23T06:50:28.719Z,7.18
2019-03-23T06:52:57.003Z,7.22
2019-03-23T06:55:25.257Z,7.20
2019-03-23T06:57:53.584Z,7.26
2019-03-23T07:00:21.803Z,7.26
2019-03-23T07:02:50.056Z,7.29
2019-03-23T07:05:18.343Z,7.45
2019-03-23T07:07:47.167Z,7.37
2019-03-23T07:10:15.614Z,7.36
2019-03-23T07:12:43.872Z,7.28
2019-03-23T07:15:19.989Z,7.15
2019-03-23T07:17:42.305Z,7.11
2019-03-23T07:20:12.521Z,6.87
2019-03-23T07:22:40.778Z,6.79
2019-03-23T07:25:10.697Z,6.51
2019-03-23T07:27:38.952Z,6.52
2019-03-23T07:30:17.752Z,6.45
2019-03-23T07:32:46.008Z,6.47
2019-03-23T07:35:14.726Z,6.30
2019-03-23T07:37:43.012Z,6.10
2019-03-23T07:40:12.249Z,6.01
2019-03-23T07:42:40.512Z,5.95
2019-03-23T07:45:12.051Z,5.94
2019-03-23T07:47:40.305Z,5.95
2019-03-23T07:50:10.429Z,5.95
2019-03-23T07:52:38.693Z,5.97
2019-03-23T07:55:14.960Z,6.06
2019-03-23T07:57:43.381Z,6.11
2019-03-23T08:00:22.122Z,6.19
2019-03-23T08:02:50.452Z,6.16
2019-03-23T08:05:18.735Z,6.18
2019-03-23T08:07:46.989Z,6.29
2019-03-23T08:10:31.622Z,6.24
2019-03-23T08:13:00.181Z,6.21
2019-03-23T08:15:28.451Z,6.29
2019-03-23T08:17:56.708Z,6.17
2019-03-23T08:20:25.463Z,6.30
2019-03-23T08:22:54.465Z,6.36
2019-03-23T08:25:22.749Z,6.40
2019-03-23T08:27:51.012Z,6.36
2019-03-23T08:30:19.304Z,6.27
2019-03-23T08:32:47.564Z,6.36
2019-03-23T08:35:16.423Z,6.50
2019-03-23T08:37:44.678Z,6.59
2019-03-23T08:40:13.330Z,6.67
2019-03-23T08:42:41.596Z,6.80
2019-03-23T08:45:09.879Z,6.73
2019-03-23T08:47:38.144Z,6.64
2019-03-23T08:50:06.995Z,6.27
2019-03-23T08:52:35.255Z,6.16
2019-03-23T08:55:03.704Z,6.33
2019-03-23T08:57:31.966Z,6.29
2019-03-23T09:00:00.327Z,6.30
2019-03-23T09:02:28.583Z,6.25
2019-03-23T09:04:56.872Z,5.98
2019-03-23T09:07:25.129Z,5.99
2019-03-23T09:09:59.110Z,6.07
2019-03-23T09:12:23.415Z,6.15
2019-03-23T09:14:51.700Z,6.18
2019-03-23T09:17:19.953Z,6.25
2019-03-23T09:19:48.577Z,6.27
2019-03-23T09:22:16.840Z,6.15
2019-03-23T09:24:45.433Z,6.05
2019-03-23T09:27:13.691Z,5.95
2019-03-23T09:29:41.983Z,6.04
2019-03-23T09:32:10.249Z,6.11
2019-03-23T09:34:38.571Z,6.16
2019-03-23T09:37:06.826Z,6.15
2019-03-23T09:39:35.083Z,6.07
2019-03-23T09:42:03.367Z,5.95
2019-03-23T09:44:31.637Z,6.08
2019-03-23T09:47:00.480Z,5.77
2019-03-23T09:49:30.079Z,5.76
2019-03-23T09:51:58.368Z,5.77
2019-03-23T09:54:27.394Z,5.74
2019-03-23T09:56:56.919Z,5.70
2019-03-23T09:59:25.186Z,5.90
2019-03-23T10:01:53.486Z,6.11
2019-03-23T10:04:21.752Z,5.96
2019-03-23T10:06:50.054Z,5.78
2019-03-23T10:09:18.317Z,5.79
2019-03-23T10:11:46.598Z,5.67
2019-03-23T10:14:14.854Z,5.67
2019-03-23T10:16:43.712Z,5.64
2019-03-23T10:19:12.862Z,5.81
2019-03-23T10:21:41.141Z,5.88
2019-03-23T10:24:09.405Z,5.88
2019-03-23T10:26:37.690Z,5.74
2019-03-23T10:29:05.953Z,5.78
2019-03-23T10:31:34.237Z,5.89
2019-03-23T10:34:02.498Z,5.87
2019-03-23T10:36:30.785Z,5.86
2019-03-23T10:38:59.776Z,5.82
2019-03-23T10:41:28.065Z,5.95
2019-03-23T10:43:56.327Z,6.05
2019-03-23T10:46:25.175Z,6.23
2019-03-23T10:48:53.551Z,6.28
2019-03-23T10:51:22.409Z,6.36
2019-03-23T10:53:51.440Z,6.37
2019-03-23T10:56:19.725Z,6.33
2019-03-23T10:58:47.988Z,6.43
2019-03-23T11:01:16.276Z,6.55
2019-03-23T11:03:44.534Z,6.69
2019-03-23T11:06:12.822Z,6.65
2019-03-23T11:08:41.853Z,6.82
2019-03-23T11:11:10.135Z,7.02
2019-03-23T11:13:39.167Z,7.06
2019-03-23T11:16:07.449Z,7.17
2019-03-23T11:18:37.730Z,7.07
2019-03-23T11:21:06.045Z,6.88
2019-03-23T11:23:34.302Z,6.90
2019-03-23T11:26:03.154Z,6.90
2019-03-23T11:28:31.437Z,7.10
2019-03-23T11:30:59.849Z,7.04
2019-03-23T11:33:28.456Z,6.89
2019-03-23T11:35:58.037Z,6.69
2019-03-23T11:38:26.592Z,6.78
2019-03-23T11:40:55.349Z,7.09
2019-03-23T11:43:23.719Z,7.17
2019-03-23T11:45:52.656Z,7.38
2019-03-23T11:48:21.556Z,7.28
2019-03-23T11:50:49.770Z,7.39
2019-03-23T11:53:18.054Z,7.61
2019-03-23T11:55:46.317Z,7.72
2019-03-23T11:58:14.818Z,7.92
2019-03-23T12:00:43.074Z,8.10
2019-03-23T12:03:11.349Z,8.17
2019-03-23T12:05:39.978Z,8.29
2019-03-23T12:08:08.265Z,8.27
2019-03-23T12:10:36.518Z,8.22
2019-03-23T12:13:04.805Z,8.20
2019-03-23T12:15:33.063Z,8.47
2019-03-23T12:18:02.120Z,8.85
2019-03-23T12:20:30.405Z,9.08
2019-03-23T12:22:59.503Z,9.19
2019-03-23T12:25:27.717Z,9.14
2019-03-23T12:27:56.575Z,9.25
2019-03-23T12:30:25.609Z,9.16
2019-03-23T12:32:53.891Z,9.09
2019-03-23T12:35:22.622Z,8.83
2019-03-23T12:37:50.898Z,8.69
2019-03-23T12:40:19.161Z,8.85
2019-03-23T12:42:47.436Z,8.95
2019-03-23T12:45:15.861Z,8.89
2019-03-23T12:47:44.144Z,8.93
2019-03-23T12:50:12.393Z,8.87
2019-03-23T12:52:40.681Z,9.08
2019-03-23T12:55:09.306Z,9.26
2019-03-23T12:57:37.593Z,9.35
2019-03-23T13:00:09.104Z,9.43
2019-03-23T13:02:37.459Z,9.57
2019-03-23T13:05:06.785Z,9.95
2019-03-23T13:07:36.416Z,10.12
2019-03-23T13:10:06.219Z,10.37
2019-03-23T13:12:34.505Z,10.47
2019-03-23T13:15:02.842Z,10.47
2019-03-23T13:17:31.132Z,10.08
2019-03-23T13:19:59.457Z,10.42
2019-03-23T13:22:27.757Z,10.78
2019-03-23T13:24:56.011Z,10.73
2019-03-23T13:27:24.295Z,11.03
2019-03-23T13:29:52.553Z,11.10
2019-03-23T13:32:20.838Z,11.37
2019-03-23T13:34:49.097Z,11.40
2019-03-23T13:37:17.375Z,11.24
2019-03-23T13:39:45.636Z,10.98
2019-03-23T13:42:13.896Z,11.17
2019-03-23T13:44:42.180Z,11.26
2019-03-23T13:47:11.311Z,11.57
2019-03-23T13:49:39.590Z,12.03
2019-03-23T13:52:07.851Z,12.42
2019-03-23T13:54:36.135Z,12.17
2019-03-23T13:57:04.466Z,11.91
2019-03-23T13:59:32.748Z,11.69
2019-03-23T14:02:01.006Z,11.69
2019-03-23T14:04:29.295Z,11.25
2019-03-23T14:06:57.566Z,11.29
2019-03-23T14:09:26.877Z,11.38
2019-03-23T14:11:55.925Z,11.33
2019-03-23T14:14:24.197Z,11.33
2019-03-23T14:16:52.460Z,11.54
2019-03-23T14:19:20.749Z,11.49
2019-03-23T14:21:49.021Z,11.51
2019-03-23T14:24:17.298Z,11.56
2019-03-23T14:26:45.557Z,11.20
2019-03-23T14:29:13.843Z,10.99
2019-03-23T14:31:42.103Z,10.97
2019-03-23T14:34:10.389Z,11.01
2019-03-23T14:36:38.652Z,10.96
2019-03-23T14:39:07.204Z,11.08
2019-03-23T14:41:35.467Z,11.17
2019-03-23T14:44:03.746Z,11.06
2019-03-23T14:46:32.009Z,11.15
2019-03-23T14:49:01.881Z,11.20
2019-03-23T14:51:30.323Z,11.35
2019-03-23T14:53:58.609Z,11.42
2019-03-23T14:56:31.475Z,11.31
2019-03-23T14:58:57.455Z,11.15
2019-03-23T15:01:25.707Z,11.16
2019-03-23T15:03:53.993Z,10.99
2019-03-23T15:06:23.024Z,10.80
2019-03-23T15:08:51.308Z,10.84
2019-03-23T15:11:19.813Z,10.79
2019-03-23T15:13:48.094Z,10.62
2019-03-23T15:16:17.034Z,10.57
2019-03-23T15:18:45.315Z,10.62
2019-03-23T15:21:14.146Z,10.67
2019-03-23T15:23:42.430Z,10.61
2019-03-23T15:26:10.700Z,10.52
2019-03-23T15:28:38.958Z,10.43
2019-03-23T15:31:07.234Z,10.49
2019-03-23T15:33:35.489Z,10.49
2019-03-23T15:36:03.779Z,10.50
2019-03-23T15:38:32.402Z,10.49
2019-03-23T15:41:00.678Z,10.39
2019-03-23T15:43:29.015Z,10.48
2019-03-23T15:45:57.296Z,10.51
2019-03-23T15:48:25.558Z,10.45
2019-03-23T15:50:54.212Z,10.41
2019-03-23T15:53:22.470Z,10.34
2019-03-23T15:55:50.750Z,10.28
2019-03-23T15:58:19.086Z,10.36
2019-03-23T16:00:47.367Z,10.34
2019-03-23T16:03:15.627Z,10.33
2019-03-23T16:05:43.905Z,10.28
2019-03-23T16:08:12.162Z,10.42
2019-03-23T16:10:41.212Z,10.33
2019-03-23T16:13:09.469Z,10.35
2019-03-23T16:15:37.756Z,10.21
2019-03-23T16:18:06.015Z,10.14
2019-03-23T16:20:34.301Z,10.19
2019-03-23T16:23:02.566Z,10.16
2019-03-23T16:25:31.435Z,10.15
2019-03-23T16:27:59.677Z,10.16
2019-03-23T16:30:31.897Z,10.26
2019-03-23T16:33:00.157Z,10.08
2019-03-23T16:35:29.008Z,10.01
2019-03-23T16:37:57.932Z,9.92
2019-03-23T16:40:26.210Z,9.83
2019-03-23T16:42:55.038Z,9.74
2019-03-23T16:45:23.314Z,9.87
2019-03-23T16:47:51.578Z,9.85
2019-03-23T16:50:19.859Z,9.82
2019-03-23T16:52:48.114Z,9.65
2019-03-23T16:55:16.393Z,9.72
2019-03-23T16:57:44.650Z,9.72
2019-03-23T17:00:14.173Z,9.68
2019-03-23T17:02:42.431Z,9.77
2019-03-23T17:05:10.714Z,9.71
2019-03-23T17:07:38.970Z,9.57
2019-03-23T17:10:07.250Z,9.65
2019-03-23T17:12:36.349Z,9.58
2019-03-23T17:15:06.734Z,9.62
2019-03-23T17:17:34.424Z,9.54
2019-03-23T17:20:02.698Z,9.56
2019-03-23T17:22:31.534Z,9.52
2019-03-23T17:24:59.792Z,9.55
2019-03-23T17:27:28.076Z,9.58
2019-03-23T17:29:57.181Z,9.58
2019-03-23T17:32:25.466Z,9.43
2019-03-23T17:34:55.062Z,9.58
2019-03-23T17:37:23.341Z,9.56
2019-03-23T17:39:51.602Z,9.50
2019-03-23T17:42:19.880Z,9.48
2019-03-23T17:44:48.910Z,9.31
2019-03-23T17:47:17.187Z,9.33
2019-03-23T17:49:45.454Z,9.38
2019-03-23T17:52:14.304Z,9.39
2019-03-23T17:54:43.345Z,9.39
2019-03-23T17:57:11.613Z,9.39
2019-03-23T17:59:39.888Z,9.28
2019-03-23T18:02:08.162Z,9.31
2019-03-23T18:04:36.424Z,9.30
2019-03-23T18:07:04.961Z,9.36
2019-03-23T18:09:33.992Z,9.25
2019-03-23T18:12:02.271Z,9.18
2019-03-23T18:14:30.533Z,9.27
2019-03-23T18:16:59.382Z,9.26
2019-03-23T18:19:27.643Z,9.28
2019-03-23T18:21:56.845Z,9.29
2019-03-23T18:24:25.099Z,9.14
2019-03-23T18:26:53.945Z,9.18
2019-03-23T18:29:22.201Z,9.12
2019-03-23T18:31:50.488Z,9.19
2019-03-23T18:34:19.315Z,9.11
2019-03-23T18:36:47.604Z,9.07
2019-03-23T18:39:15.861Z,9.02
2019-03-23T18:41:44.914Z,9.06
2019-03-23T18:44:16.441Z,9.33
2019-03-23T18:46:43.163Z,9.24
2019-03-23T18:49:11.423Z,9.02
2019-03-23T18:51:39.712Z,8.96
2019-03-23T18:54:08.533Z,9.02
2019-03-23T18:56:37.580Z,8.95
2019-03-23T18:59:05.840Z,9.06
2019-03-23T19:01:34.118Z,8.95
2019-03-23T19:04:02.374Z,8.81
2019-03-23T19:06:30.655Z,8.79
2019-03-23T19:08:58.915Z,8.84
2019-03-23T19:11:27.184Z,8.81
2019-03-23T19:13:55.437Z,8.83
2019-03-23T19:16:23.718Z,8.77
2019-03-23T19:18:52.548Z,8.76
2019-03-23T19:21:20.813Z,8.77
2019-03-23T19:23:49.962Z,8.73
2019-03-23T19:26:18.215Z,8.60
2019-03-23T19:28:46.486Z,8.72
2019-03-23T19:31:15.320Z,8.69
2019-03-23T19:33:44.268Z,8.66
2019-03-23T19:36:12.520Z,8.62
2019-03-23T19:38:41.372Z,8.66
2019-03-23T19:41:09.630Z,8.77
2019-03-23T19:43:48.355Z,8.67
2019-03-23T19:46:08.664Z,8.62
2019-03-23T19:48:36.944Z,8.65
2019-03-23T19:51:05.198Z,8.57
2019-03-23T19:53:33.478Z,8.44
2019-03-23T19:56:01.738Z,8.38
2019-03-23T19:58:30.018Z,8.36
2019-03-23T20:00:58.277Z,8.26
2019-03-23T20:03:27.226Z,8.34
2019-03-23T20:05:56.254Z,8.29
2019-03-23T20:08:25.603Z,8.27
2019-03-23T20:10:54.067Z,8.26
2019-03-23T20:13:22.634Z,8.13
2019-03-23T20:15:50.888Z,8.16
2019-03-23T20:18:19.172Z,8.22
2019-03-23T20:20:47.425Z,8.13
2019-03-23T20:23:15.710Z,8.12
2019-03-23T20:25:44.735Z,8.13
2019-03-23T20:28:13.019Z,8.14
2019-03-23T20:30:41.286Z,8.18
2019-03-23T20:33:19.109Z,8.25
2019-03-23T20:35:39.530Z,8.43
2019-03-23T20:38:07.823Z,8.18
2019-03-23T20:40:36.071Z,8.10
2019-03-23T20:43:04.352Z,8.13
2019-03-23T20:45:32.613Z,8.05
2019-03-23T20:48:00.910Z,7.96
2019-03-23T20:50:29.148Z,8.00
2019-03-23T20:52:57.428Z,7.96
2019-03-23T20:55:27.877Z,7.93
2019-03-23T20:57:55.590Z,7.94
2019-03-23T21:00:24.628Z,8.04
2019-03-23T21:02:52.936Z,7.96
2019-03-23T21:05:21.162Z,7.93
2019-03-23T21:07:49.433Z,7.92
2019-03-23T21:10:17.685Z,7.97
2019-03-23T21:12:46.705Z,7.89
2019-03-23T21:15:14.956Z,7.87
2019-03-23T21:17:51.085Z,7.89
2019-03-23T21:20:13.220Z,7.85
2019-03-23T21:22:41.502Z,7.74
2019-03-23T21:25:09.749Z,7.88
2019-03-23T21:27:38.007Z,7.84
2019-03-23T21:30:12.248Z,7.79
2019-03-23T21:32:41.174Z,7.77
2019-03-23T21:35:09.457Z,7.69
2019-03-23T21:37:37.710Z,7.51
2019-03-23T21:40:06.261Z,7.51
2019-03-23T21:42:34.509Z,7.51
2019-03-23T21:45:02.784Z,7.37
2019-03-23T21:47:31.032Z,7.34
2019-03-23T21:49:59.305Z,7.30
2019-03-23T21:52:27.561Z,7.35
2019-03-23T21:54:55.828Z,7.28
2019-03-23T21:57:24.079Z,7.35
2019-03-23T21:59:52.369Z,7.42
2019-03-23T22:02:20.620Z,7.31
2019-03-23T22:04:49.462Z,7.35
2019-03-23T22:07:17.707Z,7.34
2019-03-23T22:09:46.001Z,7.19
2019-03-23T22:12:14.726Z,7.13
2019-03-23T22:14:43.009Z,7.03
2019-03-23T22:17:11.263Z,6.95
2019-03-23T22:19:39.537Z,6.83
2019-03-23T22:22:07.791Z,6.81
2019-03-23T22:24:36.315Z,6.90
2019-03-23T22:27:04.567Z,6.87
2019-03-23T22:29:32.843Z,6.87
2019-03-23T22:32:01.839Z,6.84
2019-03-23T22:34:30.114Z,6.90
2019-03-23T22:36:58.365Z,6.87
2019-03-23T22:39:26.641Z,6.82
2019-03-23T22:41:54.900Z,6.70
2019-03-23T22:44:23.188Z,6.60
2019-03-23T22:46:52.004Z,6.58
2019-03-23T22:49:20.285Z,6.65
2019-03-23T22:51:49.078Z,6.54
2019-03-23T22:54:17.347Z,6.51
2019-03-23T22:56:45.595Z,6.43
2019-03-23T22:59:15.407Z,6.43
2019-03-23T23:01:43.830Z,6.45
2019-03-23T23:04:12.105Z,6.34
2019-03-23T23:06:40.358Z,6.44
2019-03-23T23:09:09.599Z,6.23
2019-03-23T23:11:37.850Z,6.23
2019-03-23T23:14:06.689Z,6.38
2019-03-23T23:16:34.937Z,6.36
2019-03-23T23:19:03.208Z,6.27
2019-03-23T23:21:31.787Z,6.24
2019-03-23T23:24:00.052Z,6.21
2019-03-23T23:26:28.307Z,6.22
2019-03-23T23:28:56.581Z,6.09
2019-03-23T23:31:24.832Z,5.94
2019-03-23T23:33:53.109Z,5.82
2019-03-23T23:36:22.706Z,5.73
2019-03-23T23:38:52.551Z,5.67
2019-03-23T23:41:21.006Z,5.67
2019-03-23T23:43:49.853Z,5.48
2019-03-23T23:46:18.112Z,5.41
2019-03-23T23:48:51.180Z,5.22
2019-03-23T23:51:16.360Z,5.51
2019-03-23T23:53:45.025Z,5.14
2019-03-23T23:56:13.302Z,4.71
2019-03-23T23:58:41.555Z,4.74
